createdAt,value
2019-03-04T00:02:04.864Z,7.03
2019-03-04T00:04:34.206Z,14.53
2019-03-04T00:07:03.573Z,8.80
2019-03-04T00:09:32.984Z,6.30
2019-03-04T00:12:02.263Z,8.40
2019-03-04T00:14:31.634Z,8.90
2019-03-04T00:17:00.975Z,12.40
2019-03-04T00:19:30.310Z,7.00
2019-03-04T00:21:59.657Z,12.07
2019-03-04T00:24:29.018Z,9.70
2019-03-04T00:26:58.821Z,12.70
2019-03-04T00:29:28.145Z,7.53
2019-03-04T00:31:58.888Z,6.67
2019-03-04T00:34:28.192Z,6.87
2019-03-04T00:36:57.526Z,7.40
2019-03-04T00:39:26.889Z,15.07
2019-03-04T00:41:56.284Z,5.80
2019-03-04T00:44:25.622Z,10.23
2019-03-04T00:46:54.969Z,11.83
2019-03-04T00:49:24.596Z,7.63
2019-03-04T00:51:53.960Z,10.20
2019-03-04T00:54:23.300Z,7.90
2019-03-04T00:56:52.641Z,12.10
2019-03-04T00:59:22.011Z,11.63
2019-03-04T01:01:51.353Z,12.73
2019-03-04T01:04:20.708Z,14.73
2019-03-04T01:06:50.187Z,11.83
2019-03-04T01:09:19.970Z,5.23
2019-03-04T01:11:49.235Z,7.83
2019-03-04T01:14:18.826Z,9.70
2019-03-04T01:16:48.316Z,7.23
2019-03-04T01:19:17.727Z,12.67
2019-03-04T01:21:47.076Z,8.77
2019-03-04T01:24:16.430Z,8.53
2019-03-04T01:26:45.795Z,8.90
2019-03-04T01:29:15.150Z,10.90
2019-03-04T01:31:44.564Z,8.53
2019-03-04T01:34:13.917Z,5.23
2019-03-04T01:36:43.270Z,8.10
2019-03-04T01:39:12.720Z,9.17
2019-03-04T01:41:42.061Z,7.20
2019-03-04T01:44:11.420Z,7.30
2019-03-04T01:46:40.757Z,4.30
2019-03-04T01:49:10.680Z,5.67
2019-03-04T01:51:40.028Z,5.43
2019-03-04T01:54:09.365Z,6.87
2019-03-04T01:56:38.755Z,8.10
2019-03-04T01:59:08.096Z,5.90
2019-03-04T02:01:37.457Z,5.50
2019-03-04T02:04:06.798Z,5.33
2019-03-04T02:06:36.184Z,6.90
2019-03-04T02:09:07.063Z,7.60
2019-03-04T02:11:36.412Z,9.10
2019-03-04T02:14:06.130Z,6.07
2019-03-04T02:16:35.468Z,5.50
2019-03-04T02:19:04.844Z,10.17
2019-03-04T02:21:34.180Z,6.30
2019-03-04T02:24:26.301Z,5.60
2019-03-04T02:26:59.566Z,6.27
2019-03-04T02:29:29.126Z,7.73
2019-03-04T02:31:58.462Z,9.13
2019-03-04T02:34:27.824Z,6.77
2019-03-04T02:36:57.155Z,5.33
2019-03-04T02:39:26.525Z,8.10
2019-03-04T02:41:55.886Z,6.27
2019-03-04T02:44:25.265Z,4.70
2019-03-04T02:46:54.612Z,5.00
2019-03-04T02:49:23.940Z,4.77
2019-03-04T02:51:53.241Z,4.70
2019-03-04T02:54:22.580Z,5.50
2019-03-04T02:56:51.946Z,4.90
2019-03-04T02:59:21.495Z,4.20
2019-03-04T03:01:50.869Z,5.40
2019-03-04T03:04:20.142Z,4.90
2019-03-04T03:06:49.986Z,4.77
2019-03-04T03:09:19.348Z,5.23
2019-03-04T03:11:49.104Z,5.23
2019-03-04T03:14:18.485Z,4.80
2019-03-04T03:16:47.828Z,5.03
2019-03-04T03:19:17.172Z,5.87
2019-03-04T03:21:46.563Z,4.20
2019-03-04T03:24:15.850Z,4.47
2019-03-04T03:26:45.175Z,4.40
2019-03-04T03:29:14.642Z,4.67
2019-03-04T03:31:44.065Z,4.20
2019-03-04T03:34:13.546Z,3.60
2019-03-04T03:36:42.920Z,4.20
2019-03-04T03:39:12.728Z,3.63
2019-03-04T03:41:42.000Z,4.37
2019-03-04T03:44:11.366Z,4.47
2019-03-04T03:46:40.702Z,4.50
2019-03-04T03:49:10.045Z,4.10
2019-03-04T03:51:39.391Z,4.23
2019-03-04T03:54:08.755Z,4.40
2019-03-04T03:56:38.089Z,3.90
2019-03-04T03:59:08.212Z,3.83
2019-03-04T04:01:37.564Z,4.10
2019-03-04T04:04:06.921Z,4.60
2019-03-04T04:06:36.307Z,4.23
2019-03-04T04:09:06.755Z,9.13
2019-03-04T04:11:36.098Z,6.60
2019-03-04T04:14:05.618Z,6.13
2019-03-04T04:16:34.961Z,5.30
2019-03-04T04:19:04.342Z,5.67
2019-03-04T04:21:33.669Z,7.40
2019-03-04T04:24:03.007Z,7.13
2019-03-04T04:26:32.354Z,6.67
2019-03-04T04:29:06.608Z,6.17
2019-03-04T04:31:35.944Z,8.07
2019-03-04T04:34:05.648Z,7.70
2019-03-04T04:36:35.094Z,7.53
2019-03-04T04:39:05.646Z,5.53
2019-03-04T04:41:34.997Z,7.13
2019-03-04T04:44:04.660Z,7.07
2019-03-04T04:46:55.176Z,6.97
2019-03-04T04:49:26.118Z,7.80
2019-03-04T04:51:55.477Z,8.00
2019-03-04T04:54:24.885Z,6.80
2019-03-04T04:56:54.226Z,7.57
2019-03-04T04:59:23.550Z,6.50
2019-03-04T05:01:52.939Z,7.47
2019-03-04T05:04:22.265Z,6.80
2019-03-04T05:06:51.506Z,7.33
2019-03-04T05:09:20.906Z,8.23
2019-03-04T05:11:50.253Z,8.60
2019-03-04T05:14:19.617Z,8.13
2019-03-04T05:16:48.990Z,12.30
2019-03-04T05:19:18.332Z,9.63
2019-03-04T05:21:47.677Z,9.77
2019-03-04T05:24:17.024Z,12.70
2019-03-04T05:26:46.363Z,9.47
2019-03-04T05:29:15.700Z,9.80
2019-03-04T05:31:45.004Z,10.40
2019-03-04T05:34:14.347Z,15.37
2019-03-04T05:36:43.688Z,29.03
2019-03-04T05:39:13.071Z,13.57
2019-03-04T05:41:42.336Z,9.83
2019-03-04T05:44:11.675Z,7.77
2019-03-04T05:46:41.054Z,7.90
2019-03-04T05:49:10.397Z,7.20
2019-03-04T05:51:39.733Z,7.40
2019-03-04T05:54:09.081Z,6.23
2019-03-04T05:56:38.421Z,6.63
2019-03-04T05:59:19.120Z,8.43
2019-03-04T06:01:42.612Z,7.90
2019-03-04T06:04:13.123Z,7.10
2019-03-04T06:07:07.584Z,6.60
2019-03-04T06:09:36.875Z,7.30
2019-03-04T06:12:06.621Z,13.43
2019-03-04T06:14:36.161Z,6.20
2019-03-04T06:17:05.544Z,6.27
2019-03-04T06:19:35.671Z,6.63
2019-03-04T06:22:05.052Z,5.40
2019-03-04T06:24:34.541Z,7.23
2019-03-04T06:27:03.899Z,6.03
2019-03-04T06:29:33.327Z,5.83
2019-03-04T06:32:02.768Z,5.80
2019-03-04T06:34:32.166Z,5.83
2019-03-04T06:37:01.508Z,4.73
2019-03-04T06:39:32.325Z,5.60
2019-03-04T06:42:01.734Z,5.03
2019-03-04T06:44:31.399Z,6.67
2019-03-04T06:47:00.781Z,4.40
2019-03-04T06:49:30.134Z,4.30
2019-03-04T06:51:59.589Z,5.57
2019-03-04T06:55:11.279Z,5.00
2019-03-04T06:57:46.760Z,11.80
2019-03-04T07:01:04.357Z,7.87
2019-03-04T07:03:43.276Z,6.73
2019-03-04T07:06:12.648Z,5.43
2019-03-04T07:09:18.570Z,5.67
2019-03-04T07:11:54.328Z,5.43
2019-03-04T07:14:23.744Z,5.43
2019-03-04T07:16:53.664Z,18.90
2019-03-04T07:19:24.241Z,7.30
2019-03-04T07:21:53.656Z,21.27
2019-03-04T07:24:23.113Z,8.53
2019-03-04T07:26:52.423Z,8.00
2019-03-04T07:29:21.766Z,9.60
2019-03-04T07:31:51.672Z,8.10
2019-03-04T07:34:21.037Z,5.57
2019-03-04T07:36:50.483Z,7.40
2019-03-04T07:39:20.413Z,6.10
2019-03-04T07:41:54.211Z,6.70
2019-03-04T07:44:23.776Z,6.77
2019-03-04T07:46:53.144Z,5.90
2019-03-04T07:49:22.484Z,4.90
2019-03-04T07:51:51.906Z,6.13
2019-03-04T07:54:21.358Z,5.10
2019-03-04T07:56:50.712Z,4.20
2019-03-04T07:59:19.996Z,4.53
2019-03-04T08:01:49.362Z,6.77
2019-03-04T08:04:18.716Z,5.97
2019-03-04T08:06:48.064Z,5.13
2019-03-04T08:10:19.220Z,5.47
2019-03-04T08:12:59.004Z,6.07
2019-03-04T08:15:40.029Z,6.13
2019-03-04T08:18:09.380Z,5.80
2019-03-04T08:20:39.098Z,5.47
2019-03-04T08:23:10.067Z,5.47
2019-03-04T08:25:39.591Z,5.13
2019-03-04T08:28:10.360Z,7.20
2019-03-04T08:30:40.108Z,4.83
2019-03-04T08:33:09.805Z,3.50
2019-03-04T08:35:39.141Z,3.90
2019-03-04T08:38:08.496Z,4.67
2019-03-04T08:40:39.578Z,4.07
2019-03-04T08:43:09.731Z,4.10
2019-03-04T08:45:39.097Z,4.27
2019-03-04T08:48:08.483Z,4.07
2019-03-04T08:50:37.847Z,3.90
2019-03-04T08:53:07.239Z,4.20
2019-03-04T08:55:37.028Z,4.77
2019-03-04T08:58:06.409Z,4.77
2019-03-04T09:00:36.288Z,3.70
2019-03-04T09:03:05.577Z,3.57
2019-03-04T09:05:34.930Z,4.00
2019-03-04T09:08:04.765Z,3.70
2019-03-04T09:10:34.134Z,4.20
2019-03-04T09:13:03.512Z,3.47
2019-03-04T09:15:32.877Z,3.30
2019-03-04T09:18:02.228Z,3.70
2019-03-04T09:20:31.575Z,3.20
2019-03-04T09:23:01.593Z,3.10
2019-03-04T09:25:45.760Z,3.47
2019-03-04T09:28:15.130Z,3.23
2019-03-04T09:30:44.526Z,6.30
2019-03-04T09:33:14.859Z,3.07
2019-03-04T09:35:44.200Z,3.30
2019-03-04T09:38:14.304Z,3.63
2019-03-04T09:40:43.614Z,5.03
2019-03-04T09:43:12.969Z,3.50
2019-03-04T09:45:42.303Z,4.33
2019-03-04T09:48:12.133Z,4.40
2019-03-04T09:50:41.533Z,3.67
2019-03-04T09:53:10.847Z,3.50
2019-03-04T09:55:40.210Z,3.53
2019-03-04T09:58:09.578Z,2.70
2019-03-04T10:01:06.148Z,2.83
2019-03-04T10:04:25.082Z,2.77
2019-03-04T10:07:37.630Z,2.97
2019-03-04T10:10:48.921Z,2.63
2019-03-04T10:14:04.491Z,3.13
2019-03-04T10:17:13.114Z,3.37
2019-03-04T10:20:16.676Z,3.13
2019-03-04T10:23:15.336Z,3.00
2019-03-04T10:26:24.345Z,3.70
2019-03-04T10:29:47.064Z,2.83
2019-03-04T10:33:03.180Z,2.10
2019-03-04T10:35:42.987Z,2.60
2019-03-04T10:39:02.151Z,3.67
2019-03-04T10:42:14.929Z,5.60
2019-03-04T10:45:18.972Z,3.07
2019-03-04T10:47:48.489Z,3.17
2019-03-04T10:50:17.831Z,3.70
2019-03-04T10:52:47.216Z,3.13
2019-03-04T10:55:18.021Z,3.03
2019-03-04T10:57:47.378Z,4.77
2019-03-04T11:00:18.087Z,3.80
2019-03-04T11:02:47.424Z,3.50
2019-03-04T11:05:17.376Z,6.57
2019-03-04T11:07:46.814Z,4.10
2019-03-04T11:10:16.172Z,5.20
2019-03-04T11:12:45.522Z,4.10
2019-03-04T11:15:22.532Z,3.87
2019-03-04T11:17:54.146Z,3.23
2019-03-04T11:20:22.931Z,7.13
2019-03-04T11:22:52.271Z,4.30
2019-03-04T11:25:21.592Z,9.83
2019-03-04T11:27:51.081Z,5.30
2019-03-04T11:30:22.293Z,3.40
2019-03-04T11:32:51.593Z,26.97
2019-03-04T11:35:20.961Z,4.30
2019-03-04T11:37:50.347Z,5.57
2019-03-04T11:40:33.559Z,6.40
2019-03-04T11:43:03.542Z,3.73
2019-03-04T11:45:32.901Z,3.70
2019-03-04T11:48:03.351Z,5.83
2019-03-04T11:50:32.707Z,6.53
2019-03-04T11:53:02.054Z,5.97
2019-03-04T11:55:31.560Z,5.23
2019-03-04T11:58:00.915Z,6.47
2019-03-04T12:00:38.209Z,4.73
2019-03-04T12:03:07.565Z,5.70
2019-03-04T12:05:36.920Z,5.87
2019-03-04T12:08:06.385Z,5.67
2019-03-04T12:10:35.733Z,7.27
2019-03-04T12:13:05.337Z,6.53
2019-03-04T12:15:34.691Z,4.43
2019-03-04T12:18:04.046Z,6.17
2019-03-04T12:20:33.434Z,6.00
2019-03-04T12:23:03.554Z,5.57
2019-03-04T12:25:32.895Z,4.10
2019-03-04T12:28:02.322Z,5.73
2019-03-04T12:30:31.722Z,5.80
2019-03-04T12:33:01.087Z,7.33
2019-03-04T12:35:30.898Z,5.10
2019-03-04T12:38:00.249Z,5.03
2019-03-04T12:40:29.643Z,5.47
2019-03-04T12:42:59.018Z,4.33
2019-03-04T12:45:34.393Z,3.67
2019-03-04T12:47:59.391Z,4.60
2019-03-04T12:50:28.764Z,4.30
2019-03-04T12:52:58.144Z,4.33
2019-03-04T12:55:27.523Z,4.47
2019-03-04T12:57:56.888Z,5.80
2019-03-04T13:00:26.271Z,5.87
2019-03-04T13:02:57.783Z,5.07
2019-03-04T13:05:26.657Z,4.87
2019-03-04T13:07:56.035Z,4.10
2019-03-04T13:10:25.798Z,3.67
2019-03-04T13:12:55.248Z,4.13
2019-03-04T13:15:24.914Z,4.13
2019-03-04T13:17:54.309Z,4.60
2019-03-04T13:20:23.813Z,3.93
2019-03-04T13:22:53.159Z,3.90
2019-03-04T13:25:22.535Z,3.27
2019-03-04T13:27:51.902Z,3.00
2019-03-04T13:30:22.842Z,3.13
2019-03-04T13:32:52.135Z,3.80
2019-03-04T13:35:24.854Z,3.30
2019-03-04T13:37:54.161Z,2.63
2019-03-04T13:40:23.666Z,3.50
2019-03-04T13:42:55.133Z,4.53
2019-03-04T13:45:25.312Z,6.00
2019-03-04T13:47:54.981Z,8.40
2019-03-04T13:50:26.169Z,3.00
2019-03-04T13:52:55.881Z,3.47
2019-03-04T13:55:25.324Z,3.00
2019-03-04T13:57:54.686Z,4.30
2019-03-04T14:00:24.081Z,3.80
2019-03-04T14:02:53.470Z,4.80
2019-03-04T14:05:23.005Z,3.30
2019-03-04T14:07:52.407Z,4.03
2019-03-04T14:10:22.213Z,3.90
2019-03-04T14:12:52.121Z,4.20
2019-03-04T14:15:26.913Z,6.10
2019-03-04T14:17:56.414Z,4.80
2019-03-04T14:20:25.800Z,4.97
2019-03-04T14:22:57.920Z,5.50
2019-03-04T14:25:26.569Z,5.13
2019-03-04T14:27:55.915Z,4.67
2019-03-04T14:30:25.299Z,5.20
2019-03-04T14:32:54.727Z,5.40
2019-03-04T14:35:24.097Z,5.80
2019-03-04T14:37:53.366Z,6.57
2019-03-04T14:40:23.363Z,3.87
2019-03-04T14:42:54.930Z,4.10
2019-03-04T14:45:24.881Z,6.73
2019-03-04T14:47:54.256Z,6.33
2019-03-04T14:50:23.727Z,4.00
2019-03-04T14:52:53.608Z,4.20
2019-03-04T14:55:23.026Z,6.10
2019-03-04T14:57:52.604Z,6.73
2019-03-04T15:00:27.043Z,5.40
2019-03-04T15:02:56.424Z,4.20
2019-03-04T15:05:26.211Z,4.83
2019-03-04T15:07:55.833Z,6.37
2019-03-04T15:10:25.233Z,6.47
2019-03-04T15:12:54.655Z,8.57
2019-03-04T15:15:24.508Z,31.57
2019-03-04T15:17:53.912Z,7.50
2019-03-04T15:20:23.670Z,6.43
2019-03-04T15:22:52.960Z,8.90
2019-03-04T15:25:24.940Z,7.20
2019-03-04T15:27:55.942Z,5.73
2019-03-04T15:30:25.391Z,6.03
2019-03-04T15:32:54.811Z,7.70
2019-03-04T15:35:24.163Z,12.87
2019-03-04T15:37:53.534Z,7.97
2019-03-04T15:40:22.891Z,7.60
2019-03-04T15:42:52.285Z,5.83
2019-03-04T15:45:21.663Z,6.40
2019-03-04T15:47:52.356Z,7.17
2019-03-04T15:50:21.655Z,11.70
2019-03-04T15:52:51.025Z,20.50
2019-03-04T15:55:21.891Z,21.07
2019-03-04T15:57:51.231Z,15.13
2019-03-04T16:00:20.562Z,15.23
2019-03-04T16:02:50.682Z,13.83
2019-03-04T16:05:20.228Z,17.20
2019-03-04T16:07:49.654Z,17.77
2019-03-04T16:10:19.104Z,52.23
2019-03-04T16:12:48.451Z,49.83
2019-03-04T16:15:18.071Z,13.00
2019-03-04T16:17:47.536Z,33.60
2019-03-04T16:20:17.670Z,27.07
2019-03-04T16:22:47.121Z,62.07
2019-03-04T16:25:16.614Z,46.33
2019-03-04T16:27:45.959Z,18.33
2019-03-04T16:30:17.511Z,33.37
2019-03-04T16:32:46.972Z,23.13
2019-03-04T16:35:16.266Z,20.63
2019-03-04T16:37:45.811Z,23.83
2019-03-04T16:40:16.226Z,12.60
2019-03-04T16:42:45.632Z,9.27
2019-03-04T16:45:16.887Z,14.63
2019-03-04T16:47:46.363Z,8.90
2019-03-04T16:50:15.833Z,11.50
2019-03-04T16:55:53.343Z,27.00
2019-03-04T16:58:22.924Z,22.10
2019-03-04T17:00:56.822Z,30.23
2019-03-04T17:03:26.186Z,28.67
2019-03-04T17:05:55.523Z,30.17
2019-03-04T17:08:25.079Z,36.53
2019-03-04T17:10:55.958Z,21.97
2019-03-04T17:13:25.443Z,37.97
2019-03-04T17:15:54.893Z,34.33
2019-03-04T17:18:24.480Z,35.83
2019-03-04T17:20:53.723Z,48.10
2019-03-04T17:23:23.041Z,94.80
2019-03-04T17:25:52.269Z,100.07
2019-03-04T17:28:21.517Z,23.13
2019-03-04T17:30:50.762Z,35.83
2019-03-04T17:33:20.077Z,26.97
2019-03-04T17:35:49.519Z,29.83
2019-03-04T17:38:18.770Z,24.37
2019-03-04T17:40:48.091Z,63.03
2019-03-04T17:43:17.451Z,21.87
2019-03-04T17:45:46.758Z,22.90
2019-03-04T17:48:16.123Z,16.90
2019-03-04T17:50:45.503Z,33.60
2019-03-04T17:53:14.956Z,17.20
2019-03-04T17:55:44.546Z,22.33
2019-03-04T17:58:14.221Z,12.17
2019-03-04T18:00:46.474Z,12.63
2019-03-04T18:03:15.620Z,13.63
2019-03-04T18:05:45.365Z,12.27
2019-03-04T18:08:14.902Z,17.33
2019-03-04T18:10:44.256Z,12.23
2019-03-04T18:13:13.846Z,18.07
2019-03-04T18:15:43.379Z,16.17
2019-03-04T18:18:13.758Z,23.07
2019-03-04T18:20:43.083Z,14.53
2019-03-04T18:23:12.397Z,32.93
2019-03-04T18:25:47.341Z,15.73
2019-03-04T18:29:12.026Z,23.63
2019-03-04T18:31:54.107Z,22.83
2019-03-04T18:35:16.255Z,17.17
2019-03-04T18:38:09.837Z,13.40
2019-03-04T18:41:40.894Z,16.27
2019-03-04T18:44:44.723Z,17.40
2019-03-04T18:48:04.628Z,13.17
2019-03-04T18:50:33.857Z,12.00
2019-03-04T18:53:03.729Z,11.80
2019-03-04T18:55:32.931Z,19.10
2019-03-04T18:58:02.230Z,12.80
2019-03-04T19:00:31.467Z,13.80
2019-03-04T19:03:02.196Z,13.07
2019-03-04T19:05:31.531Z,18.53
2019-03-04T19:08:02.705Z,19.60
2019-03-04T19:10:32.063Z,15.53
2019-03-04T19:13:03.136Z,14.93
2019-03-04T19:15:32.990Z,14.27
2019-03-04T19:18:02.253Z,31.10
2019-03-04T19:20:33.435Z,6.43
2019-03-04T19:23:02.821Z,18.23
2019-03-04T19:25:32.185Z,5.97
2019-03-04T19:28:01.522Z,23.73
2019-03-04T19:30:30.997Z,11.73
2019-03-04T19:33:00.222Z,16.63
2019-03-04T19:35:29.948Z,10.67
2019-03-04T19:37:59.087Z,5.13
2019-03-04T19:40:28.458Z,9.80
2019-03-04T19:42:57.693Z,6.77
2019-03-04T19:45:27.030Z,7.47
2019-03-04T19:47:56.273Z,7.70
2019-03-04T19:50:25.467Z,7.27
2019-03-04T19:52:54.673Z,10.47
2019-03-04T19:55:23.921Z,28.47
2019-03-04T19:57:53.150Z,10.93
2019-03-04T20:00:25.174Z,12.47
2019-03-04T20:02:54.701Z,8.13
2019-03-04T20:05:24.269Z,16.17
2019-03-04T20:07:53.491Z,15.67
2019-03-04T20:10:23.024Z,10.57
2019-03-04T20:12:52.527Z,5.10
2019-03-04T20:15:22.800Z,6.70
2019-03-04T20:17:52.017Z,4.47
2019-03-04T20:20:21.327Z,4.30
2019-03-04T20:22:50.639Z,4.70
2019-03-04T20:25:20.274Z,8.03
2019-03-04T20:27:49.581Z,7.90
2019-03-04T20:30:19.254Z,3.80
2019-03-04T20:32:48.829Z,4.30
2019-03-04T20:35:18.354Z,5.17
2019-03-04T20:37:49.422Z,5.17
2019-03-04T20:40:18.797Z,4.30
2019-03-04T20:42:48.041Z,3.60
2019-03-04T20:45:18.396Z,7.53
2019-03-04T20:47:47.670Z,4.60
2019-03-04T20:50:17.891Z,6.63
2019-03-04T20:52:47.626Z,5.90
2019-03-04T20:55:17.210Z,4.00
2019-03-04T20:57:46.709Z,2.80
2019-03-04T21:00:19.923Z,2.47
2019-03-04T21:02:49.275Z,2.53
2019-03-04T21:05:18.761Z,3.13
2019-03-04T21:07:48.176Z,4.83
2019-03-04T21:10:17.642Z,6.53
2019-03-04T21:12:47.395Z,6.77
2019-03-04T21:15:18.579Z,7.60
2019-03-04T21:17:48.705Z,7.87
2019-03-04T21:20:18.146Z,10.43
2019-03-04T21:22:47.564Z,11.57
2019-03-04T21:25:52.023Z,9.23
2019-03-04T21:28:25.925Z,9.87
2019-03-04T21:31:37.793Z,10.40
2019-03-04T21:35:03.565Z,9.10
2019-03-04T21:37:36.309Z,4.30
2019-03-04T21:40:15.518Z,7.43
2019-03-04T21:42:58.403Z,6.10
2019-03-04T21:45:56.109Z,7.43
2019-03-04T21:48:46.447Z,10.33
2019-03-04T21:51:43.738Z,9.33
2019-03-04T21:54:13.129Z,6.83
2019-03-04T21:57:19.947Z,8.83
2019-03-04T21:59:49.177Z,4.90
2019-03-04T22:02:31.583Z,4.97
2019-03-04T22:05:03.694Z,5.83
2019-03-04T22:07:32.905Z,3.17
2019-03-04T22:10:02.243Z,5.67
2019-03-04T22:12:31.529Z,4.13
2019-03-04T22:15:00.718Z,4.57
2019-03-04T22:17:29.946Z,3.27
2019-03-04T22:20:00.393Z,5.37
2019-03-04T22:22:29.990Z,4.10
2019-03-04T22:24:59.259Z,4.07
2019-03-04T22:27:28.514Z,3.67
2019-03-04T22:29:57.821Z,3.50
2019-03-04T22:32:27.066Z,3.40
2019-03-04T22:34:56.419Z,2.57
2019-03-04T22:37:25.735Z,3.20
2019-03-04T22:39:54.944Z,3.40
2019-03-04T22:42:24.259Z,2.43
2019-03-04T22:44:53.498Z,3.40
2019-03-04T22:47:22.735Z,2.53
2019-03-04T22:49:51.960Z,2.00
2019-03-04T22:52:21.248Z,3.13
2019-03-04T22:54:50.545Z,2.70
2019-03-04T22:57:19.868Z,2.30
2019-03-04T22:59:49.110Z,5.10
2019-03-04T23:02:18.726Z,3.20
2019-03-04T23:04:59.926Z,3.10
2019-03-04T23:07:32.101Z,7.07
2019-03-04T23:10:09.305Z,2.70
2019-03-04T23:12:44.653Z,3.37
2019-03-04T23:15:16.702Z,3.60
2019-03-04T23:17:45.968Z,2.60
2019-03-04T23:20:15.565Z,2.57
2019-03-04T23:22:44.847Z,3.30
2019-03-04T23:25:14.178Z,2.40
2019-03-04T23:27:43.411Z,2.43
2019-03-04T23:30:14.121Z,3.83
2019-03-04T23:32:43.458Z,2.07
2019-03-04T23:35:12.692Z,2.37
2019-03-04T23:37:41.906Z,4.00
2019-03-04T23:40:11.560Z,3.57
2019-03-04T23:42:40.858Z,3.70
2019-03-04T23:45:10.910Z,3.00
2019-03-04T23:47:40.260Z,4.37
2019-03-04T23:50:15.276Z,3.17
2019-03-04T23:52:44.629Z,3.07
2019-03-04T23:55:14.423Z,2.60
2019-03-04T23:57:43.637Z,3.07
